createdAt,value
2019-04-26T00:00:34.345Z,1.60
2019-04-26T00:01:34.325Z,2.60
2019-04-26T00:02:34.324Z,1.80
2019-04-26T00:03:34.296Z,2.30
2019-04-26T00:04:34.289Z,1.50
2019-04-26T00:05:36.173Z,2.00
2019-04-26T00:06:34.272Z,1.60
2019-04-26T00:07:34.248Z,1.50
2019-04-26T00:08:34.259Z,1.30
2019-04-26T00:09:34.228Z,2.10
2019-04-26T00:10:34.224Z,2.10
2019-04-26T00:11:34.254Z,2.00
2019-04-26T00:12:34.192Z,2.30
2019-04-26T00:13:34.187Z,2.50
2019-04-26T00:14:34.185Z,2.00
2019-04-26T00:15:34.161Z,2.50
2019-04-26T00:16:34.153Z,2.00
2019-04-26T00:17:34.162Z,1.50
2019-04-26T00:18:34.140Z,1.40
2019-04-26T00:19:34.124Z,2.60
2019-04-26T00:20:34.106Z,1.80
2019-04-26T00:21:34.098Z,2.40
2019-04-26T00:22:34.368Z,2.10
2019-04-26T00:23:34.080Z,1.70
2019-04-26T00:24:34.085Z,2.30
2019-04-26T00:25:34.055Z,1.90
2019-04-26T00:26:34.058Z,2.80
2019-04-26T00:27:34.052Z,1.60
2019-04-26T00:28:34.017Z,3.10
2019-04-26T00:29:34.009Z,2.00
2019-04-26T00:30:34.000Z,1.90
2019-04-26T00:31:33.997Z,1.70
2019-04-26T00:32:33.984Z,2.00
2019-04-26T00:33:33.987Z,2.70
2019-04-26T00:34:33.956Z,2.10
2019-04-26T00:35:46.624Z,1.60
2019-04-26T00:36:34.938Z,2.10
2019-04-26T00:37:33.972Z,2.90
2019-04-26T00:38:33.911Z,2.20
2019-04-26T00:39:33.905Z,2.30
2019-04-26T00:40:33.888Z,2.10
2019-04-26T00:41:33.880Z,2.40
2019-04-26T00:42:33.892Z,2.30
2019-04-26T00:43:33.864Z,1.90
2019-04-26T00:44:33.854Z,1.70
2019-04-26T00:45:33.861Z,1.80
2019-04-26T00:46:33.831Z,2.30
2019-04-26T00:47:33.845Z,1.90
2019-04-26T00:48:33.802Z,1.80
2019-04-26T00:49:43.617Z,2.00
2019-04-26T00:50:34.806Z,2.10
2019-04-26T00:51:33.796Z,2.30
2019-04-26T00:52:33.821Z,1.80
2019-04-26T00:53:33.806Z,2.30
2019-04-26T00:54:33.753Z,1.90
2019-04-26T00:55:33.736Z,1.80
2019-04-26T00:56:33.728Z,2.20
2019-04-26T00:57:33.811Z,2.40
2019-04-26T00:58:33.796Z,2.20
2019-04-26T00:59:33.697Z,1.60
2019-04-26T01:00:33.689Z,2.30
2019-04-26T01:01:33.661Z,2.00
2019-04-26T01:02:33.670Z,2.10
2019-04-26T01:03:33.640Z,2.50
2019-04-26T01:04:33.631Z,2.10
2019-04-26T01:05:33.616Z,2.20
2019-04-26T01:06:33.612Z,2.30
2019-04-26T01:07:33.595Z,2.60
2019-04-26T01:08:33.608Z,2.10
2019-04-26T01:09:33.573Z,2.00
2019-04-26T01:10:33.592Z,2.20
2019-04-26T01:11:33.554Z,2.50
2019-04-26T01:12:33.563Z,1.70
2019-04-26T01:13:33.533Z,1.60
2019-04-26T01:14:33.523Z,2.00
2019-04-26T01:15:33.508Z,2.30
2019-04-26T01:16:33.529Z,2.30
2019-04-26T01:17:33.488Z,1.90
2019-04-26T01:18:33.477Z,1.70
2019-04-26T01:19:33.471Z,1.90
2019-04-26T01:20:33.453Z,2.30
2019-04-26T01:21:33.444Z,2.30
2019-04-26T01:22:33.454Z,1.80
2019-04-26T01:23:33.438Z,2.00
2019-04-26T01:24:33.412Z,2.40
2019-04-26T01:25:33.404Z,1.80
2019-04-26T01:26:33.391Z,1.70
2019-04-26T01:27:33.405Z,2.30
2019-04-26T01:28:33.370Z,2.10
2019-04-26T01:29:33.362Z,2.00
2019-04-26T01:30:33.377Z,2.30
2019-04-26T01:31:33.340Z,1.70
2019-04-26T01:32:33.389Z,2.10
2019-04-26T01:33:33.364Z,2.70
2019-04-26T01:34:33.314Z,2.30
2019-04-26T01:35:33.313Z,2.10
2019-04-26T01:36:33.286Z,2.20
2019-04-26T01:37:33.278Z,2.10
2019-04-26T01:38:33.273Z,1.70
2019-04-26T01:39:33.265Z,2.50
2019-04-26T01:40:33.252Z,2.30
2019-04-26T01:41:33.250Z,3.10
2019-04-26T01:42:33.220Z,2.20
2019-04-26T01:43:33.206Z,2.40
2019-04-26T01:44:33.213Z,3.20
2019-04-26T01:45:33.190Z,2.30
2019-04-26T01:46:33.193Z,2.30
2019-04-26T01:47:33.170Z,2.30
2019-04-26T01:48:33.175Z,3.70
2019-04-26T01:49:33.143Z,2.80
2019-04-26T01:50:33.129Z,3.40
2019-04-26T01:51:33.149Z,3.00
2019-04-26T01:52:33.105Z,2.50
2019-04-26T01:53:33.098Z,2.50
2019-04-26T01:54:33.088Z,2.50
2019-04-26T01:55:33.079Z,2.50
2019-04-26T01:56:33.087Z,4.40
2019-04-26T01:57:33.071Z,2.70
2019-04-26T01:58:33.047Z,2.40
2019-04-26T01:59:33.043Z,2.50
2019-04-26T02:00:33.048Z,2.50
2019-04-26T02:01:33.014Z,2.60
2019-04-26T02:02:33.000Z,3.10
2019-04-26T02:03:32.988Z,2.60
2019-04-26T02:04:32.995Z,3.10
2019-04-26T02:05:32.971Z,2.80
2019-04-26T02:06:35.168Z,2.20
2019-04-26T02:07:32.949Z,3.00
2019-04-26T02:08:32.937Z,3.30
2019-04-26T02:09:32.960Z,3.20
2019-04-26T02:10:32.911Z,2.80
2019-04-26T02:11:33.057Z,3.60
2019-04-26T02:12:33.100Z,2.50
2019-04-26T02:13:33.109Z,2.80
2019-04-26T02:14:33.339Z,2.30
2019-04-26T02:15:33.507Z,2.30
2019-04-26T02:16:33.323Z,3.10
2019-04-26T02:17:33.625Z,2.60
2019-04-26T02:18:33.567Z,2.80
2019-04-26T02:19:33.687Z,2.80
2019-04-26T02:20:33.913Z,2.20
2019-04-26T02:21:32.819Z,2.60
2019-04-26T02:22:32.776Z,3.20
2019-04-26T02:23:32.769Z,2.70
2019-04-26T02:24:32.763Z,2.60
2019-04-26T02:25:32.744Z,3.10
2019-04-26T02:26:32.735Z,3.30
2019-04-26T02:27:32.743Z,3.10
2019-04-26T02:28:32.715Z,3.20
2019-04-26T02:29:32.785Z,3.70
2019-04-26T02:30:34.655Z,2.30
2019-04-26T02:31:33.739Z,2.40
2019-04-26T02:32:34.420Z,3.50
2019-04-26T02:33:33.705Z,3.90
2019-04-26T02:34:33.789Z,3.30
2019-04-26T02:35:33.974Z,2.70
2019-04-26T02:36:55.168Z,3.60
2019-04-26T02:37:34.550Z,3.60
2019-04-26T02:38:33.457Z,4.00
2019-04-26T02:39:33.951Z,2.70
2019-04-26T02:40:33.118Z,3.10
2019-04-26T02:41:33.900Z,2.80
2019-04-26T02:42:34.302Z,2.70
2019-04-26T02:43:33.865Z,3.20
2019-04-26T02:44:34.575Z,3.00
2019-04-26T02:45:34.265Z,2.90
2019-04-26T02:46:34.359Z,3.10
2019-04-26T02:47:34.470Z,3.00
2019-04-26T02:48:34.273Z,3.30
2019-04-26T02:49:33.063Z,2.50
2019-04-26T02:50:33.304Z,2.50
2019-04-26T02:51:34.142Z,3.00
2019-04-26T02:52:33.874Z,2.70
2019-04-26T02:53:33.687Z,2.90
2019-04-26T02:54:33.439Z,3.00
2019-04-26T02:55:36.858Z,3.10
2019-04-26T02:56:34.151Z,3.50
2019-04-26T02:57:33.091Z,3.40
2019-04-26T02:58:35.171Z,3.10
2019-04-26T02:59:34.098Z,2.80
2019-04-26T03:00:33.892Z,2.80
2019-04-26T03:01:35.647Z,3.30
2019-04-26T03:02:34.559Z,3.20
2019-04-26T03:03:33.773Z,2.70
2019-04-26T03:04:34.156Z,4.20
2019-04-26T03:05:34.264Z,3.20
2019-04-26T03:06:34.419Z,3.20
2019-04-26T03:07:33.867Z,3.50
2019-04-26T03:08:33.926Z,3.40
2019-04-26T03:09:33.708Z,2.90
2019-04-26T03:10:34.601Z,5.20
2019-04-26T03:11:33.892Z,2.90
2019-04-26T03:12:33.880Z,2.60
2019-04-26T03:13:34.275Z,2.70
2019-04-26T03:14:33.041Z,3.90
2019-04-26T03:15:33.974Z,3.40
2019-04-26T03:16:33.381Z,3.50
2019-04-26T03:17:33.634Z,3.20
2019-04-26T03:18:35.189Z,4.00
2019-04-26T03:19:33.770Z,3.50
2019-04-26T03:20:33.277Z,3.70
2019-04-26T03:21:34.125Z,3.00
2019-04-26T03:22:34.894Z,3.40
2019-04-26T03:23:45.951Z,3.20
2019-04-26T03:24:35.079Z,3.00
2019-04-26T03:25:33.352Z,2.80
2019-04-26T03:26:33.668Z,3.40
2019-04-26T03:27:33.579Z,4.10
2019-04-26T03:28:34.502Z,2.90
2019-04-26T03:29:33.621Z,3.60
2019-04-26T03:30:33.417Z,4.10
2019-04-26T03:31:39.068Z,3.10
2019-04-26T03:32:39.072Z,4.40
2019-04-26T03:33:38.198Z,4.00
2019-04-26T03:34:38.851Z,3.00
2019-04-26T03:35:36.887Z,3.50
2019-04-26T03:36:37.061Z,3.40
2019-04-26T03:37:34.562Z,4.20
2019-04-26T03:38:33.836Z,3.20
2019-04-26T03:39:34.272Z,3.30
2019-04-26T03:40:33.819Z,3.30
2019-04-26T03:41:34.341Z,3.70
2019-04-26T03:42:34.334Z,3.80
2019-04-26T03:43:34.317Z,3.50
2019-04-26T03:44:33.058Z,4.10
2019-04-26T03:45:33.010Z,3.50
2019-04-26T03:46:33.556Z,3.20
2019-04-26T03:47:31.890Z,3.10
2019-04-26T03:48:31.859Z,3.70
2019-04-26T03:49:31.855Z,3.60
2019-04-26T03:50:31.847Z,3.60
2019-04-26T03:51:31.821Z,3.80
2019-04-26T03:52:31.831Z,3.80
2019-04-26T03:53:31.795Z,3.40
2019-04-26T03:54:31.807Z,3.30
2019-04-26T03:55:31.785Z,3.80
2019-04-26T03:56:31.788Z,3.20
2019-04-26T03:57:31.760Z,3.20
2019-04-26T03:58:31.751Z,4.40
2019-04-26T03:59:31.737Z,4.10
2019-04-26T04:00:31.742Z,4.20
2019-04-26T04:01:31.713Z,4.20
2019-04-26T04:02:31.724Z,4.60
2019-04-26T04:03:31.694Z,4.80
2019-04-26T04:04:31.704Z,3.00
2019-04-26T04:05:31.670Z,3.30
2019-04-26T04:06:31.663Z,3.60
2019-04-26T04:07:39.251Z,3.60
2019-04-26T04:08:32.661Z,3.10
2019-04-26T04:09:31.631Z,3.20
2019-04-26T04:10:31.613Z,3.50
2019-04-26T04:11:31.693Z,3.60
2019-04-26T04:12:31.595Z,3.60
2019-04-26T04:13:31.619Z,3.70
2019-04-26T04:14:31.576Z,4.30
2019-04-26T04:15:31.564Z,3.70
2019-04-26T04:16:31.581Z,3.30
2019-04-26T04:17:31.557Z,3.20
2019-04-26T04:18:31.528Z,4.00
2019-04-26T04:19:31.517Z,3.30
2019-04-26T04:20:31.508Z,3.40
2019-04-26T04:21:31.499Z,4.80
2019-04-26T04:22:31.519Z,3.50
2019-04-26T04:23:31.478Z,5.40
2019-04-26T04:24:31.466Z,3.70
2019-04-26T04:25:31.455Z,3.00
2019-04-26T04:26:31.468Z,3.50
2019-04-26T04:27:31.452Z,3.10
2019-04-26T04:28:31.448Z,4.70
2019-04-26T04:29:40.234Z,3.20
2019-04-26T04:30:32.398Z,4.60
2019-04-26T04:31:31.406Z,3.40
2019-04-26T04:32:31.375Z,4.50
2019-04-26T04:33:31.385Z,4.10
2019-04-26T04:34:31.358Z,3.70
2019-04-26T04:35:31.351Z,3.60
2019-04-26T04:36:31.339Z,3.70
2019-04-26T04:37:31.319Z,3.30
2019-04-26T04:38:31.338Z,3.50
2019-04-26T04:39:31.323Z,3.10
2019-04-26T04:40:31.292Z,4.70
2019-04-26T04:41:31.284Z,3.80
2019-04-26T04:42:31.283Z,4.50
2019-04-26T04:43:31.257Z,4.10
2019-04-26T04:44:31.246Z,5.10
2019-04-26T04:45:31.237Z,3.80
2019-04-26T04:46:31.231Z,4.40
2019-04-26T04:47:31.649Z,3.70
2019-04-26T04:48:31.211Z,2.90
2019-04-26T04:49:31.214Z,5.10
2019-04-26T04:50:31.190Z,4.40
2019-04-26T04:51:31.216Z,4.00
2019-04-26T04:52:31.173Z,3.50
2019-04-26T04:53:31.152Z,3.90
2019-04-26T04:54:31.134Z,3.70
2019-04-26T04:55:31.127Z,3.90
2019-04-26T04:56:31.120Z,3.80
2019-04-26T04:57:31.121Z,3.20
2019-04-26T04:58:31.101Z,4.80
2019-04-26T04:59:31.087Z,3.40
2019-04-26T05:00:31.098Z,4.40
2019-04-26T05:01:32.002Z,4.00
2019-04-26T05:02:31.375Z,3.40
2019-04-26T05:03:31.060Z,4.30
2019-04-26T05:04:31.027Z,4.50
2019-04-26T05:05:31.015Z,4.30
2019-04-26T05:06:31.022Z,4.30
2019-04-26T05:07:31.016Z,3.70
2019-04-26T05:08:30.987Z,4.60
2019-04-26T05:09:31.006Z,4.80
2019-04-26T05:10:30.967Z,4.10
2019-04-26T05:11:30.982Z,3.40
2019-04-26T05:12:30.944Z,3.60
2019-04-26T05:13:30.939Z,4.30
2019-04-26T05:14:30.954Z,4.50
2019-04-26T05:15:30.933Z,3.90
2019-04-26T05:16:33.075Z,3.50
2019-04-26T05:17:30.887Z,4.30
2019-04-26T05:18:30.906Z,5.00
2019-04-26T05:19:30.866Z,3.30
2019-04-26T05:20:30.857Z,3.40
2019-04-26T05:21:30.866Z,4.40
2019-04-26T05:22:30.829Z,4.40
2019-04-26T05:23:30.828Z,3.50
2019-04-26T05:24:30.855Z,3.70
2019-04-26T05:25:30.806Z,4.60
2019-04-26T05:26:30.792Z,4.30
2019-04-26T05:27:30.779Z,3.90
2019-04-26T05:28:30.796Z,4.10
2019-04-26T05:29:30.757Z,4.10
2019-04-26T05:30:30.752Z,4.10
2019-04-26T05:31:30.740Z,3.90
2019-04-26T05:32:30.727Z,3.40
2019-04-26T05:33:30.727Z,3.80
2019-04-26T05:34:30.737Z,3.20
2019-04-26T05:35:30.715Z,4.70
2019-04-26T05:36:30.683Z,3.70
2019-04-26T05:37:30.720Z,4.40
2019-04-26T05:38:30.665Z,4.80
2019-04-26T05:39:30.673Z,4.30
2019-04-26T05:40:30.645Z,5.30
2019-04-26T05:41:30.650Z,3.20
2019-04-26T05:42:30.623Z,5.20
2019-04-26T05:43:30.613Z,4.00
2019-04-26T05:44:30.638Z,4.30
2019-04-26T05:45:30.591Z,4.10
2019-04-26T05:46:30.577Z,4.00
2019-04-26T05:47:30.598Z,3.50
2019-04-26T05:48:30.554Z,3.20
2019-04-26T05:49:30.565Z,2.90
2019-04-26T05:50:30.540Z,3.90
2019-04-26T05:51:30.535Z,3.80
2019-04-26T05:52:30.535Z,3.40
2019-04-26T05:53:30.521Z,3.50
2019-04-26T05:54:30.502Z,5.30
2019-04-26T05:55:30.483Z,4.10
2019-04-26T05:56:30.494Z,4.10
2019-04-26T05:57:30.487Z,3.60
2019-04-26T05:58:30.443Z,3.50
2019-04-26T05:59:30.454Z,3.80
2019-04-26T06:00:30.455Z,3.70
2019-04-26T06:01:30.411Z,4.20
2019-04-26T06:02:30.409Z,3.80
2019-04-26T06:03:30.407Z,4.80
2019-04-26T06:04:30.392Z,4.70
2019-04-26T06:05:30.406Z,3.20
2019-04-26T06:06:30.358Z,3.20
2019-04-26T06:07:30.357Z,3.80
2019-04-26T06:08:31.441Z,4.00
2019-04-26T06:09:30.325Z,4.30
2019-04-26T06:10:30.331Z,4.30
2019-04-26T06:11:30.338Z,3.50
2019-04-26T06:12:30.301Z,3.20
2019-04-26T06:13:30.281Z,4.20
2019-04-26T06:14:30.297Z,4.70
2019-04-26T06:15:30.300Z,4.20
2019-04-26T06:16:30.271Z,3.20
2019-04-26T06:17:30.249Z,4.40
2019-04-26T06:18:30.248Z,4.70
2019-04-26T06:19:30.226Z,3.10
2019-04-26T06:20:30.232Z,4.60
2019-04-26T06:21:30.224Z,3.80
2019-04-26T06:22:30.192Z,4.20
2019-04-26T06:23:30.183Z,3.90
2019-04-26T06:24:30.172Z,3.50
2019-04-26T06:25:30.156Z,5.30
2019-04-26T06:26:30.150Z,4.10
2019-04-26T06:27:30.150Z,4.00
2019-04-26T06:28:30.134Z,4.00
2019-04-26T06:29:32.661Z,3.30
2019-04-26T06:30:30.096Z,4.10
2019-04-26T06:31:30.087Z,3.30
2019-04-26T06:32:30.140Z,3.20
2019-04-26T06:33:30.093Z,3.00
2019-04-26T06:34:30.061Z,3.50
2019-04-26T06:35:30.046Z,4.40
2019-04-26T06:36:30.036Z,3.20
2019-04-26T06:37:30.033Z,4.30
2019-04-26T06:38:30.047Z,4.20
2019-04-26T06:39:30.002Z,4.80
2019-04-26T06:40:41.525Z,3.60
2019-04-26T06:41:30.993Z,4.60
2019-04-26T06:42:29.981Z,4.40
2019-04-26T06:43:29.986Z,4.00
2019-04-26T06:44:29.981Z,3.20
2019-04-26T06:45:29.962Z,3.40
2019-04-26T06:46:29.920Z,4.10
2019-04-26T06:47:29.916Z,3.30
2019-04-26T06:48:29.904Z,4.40
2019-04-26T06:49:29.889Z,4.00
2019-04-26T06:50:29.910Z,3.40
2019-04-26T06:51:29.875Z,4.70
2019-04-26T06:52:29.867Z,3.10
2019-04-26T06:53:29.856Z,3.40
2019-04-26T06:54:29.848Z,5.10
2019-04-26T06:55:29.848Z,3.90
2019-04-26T06:56:29.839Z,4.30
2019-04-26T06:57:29.801Z,5.00
2019-04-26T06:58:29.799Z,3.90
2019-04-26T06:59:36.335Z,3.30
2019-04-26T07:00:30.792Z,5.40
2019-04-26T07:01:29.758Z,3.80
2019-04-26T07:02:29.771Z,3.60
2019-04-26T07:03:29.744Z,3.70
2019-04-26T07:04:29.735Z,4.10
2019-04-26T07:05:29.726Z,3.10
2019-04-26T07:06:35.190Z,4.50
2019-04-26T07:07:30.694Z,4.10
2019-04-26T07:08:29.688Z,4.20
2019-04-26T07:09:29.677Z,4.40
2019-04-26T07:10:29.667Z,3.90
2019-04-26T07:11:29.678Z,4.40
2019-04-26T07:12:29.651Z,4.90
2019-04-26T07:13:29.638Z,5.10
2019-04-26T07:14:29.617Z,4.00
2019-04-26T07:15:29.610Z,3.90
2019-04-26T07:16:29.611Z,3.70
2019-04-26T07:17:29.600Z,3.80
2019-04-26T07:18:29.579Z,4.00
2019-04-26T07:19:29.583Z,4.70
2019-04-26T07:20:29.570Z,5.50
2019-04-26T07:21:29.575Z,4.00
2019-04-26T07:22:35.514Z,3.80
2019-04-26T07:23:30.537Z,6.30
2019-04-26T07:24:29.510Z,3.20
2019-04-26T07:25:29.500Z,3.00
2019-04-26T07:26:29.509Z,4.50
2019-04-26T07:27:29.477Z,2.90
2019-04-26T07:28:29.501Z,3.80
2019-04-26T07:29:29.461Z,4.00
2019-04-26T07:30:29.538Z,3.90
2019-04-26T07:31:29.451Z,3.40
2019-04-26T07:32:29.428Z,4.20
2019-04-26T07:33:29.416Z,3.30
2019-04-26T07:34:29.409Z,3.50
2019-04-26T07:35:29.396Z,2.80
2019-04-26T07:36:29.441Z,4.10
2019-04-26T07:37:29.369Z,3.90
2019-04-26T07:38:29.408Z,2.90
2019-04-26T07:39:29.352Z,2.80
2019-04-26T07:40:29.341Z,2.90
2019-04-26T07:41:29.361Z,3.00
2019-04-26T07:42:29.334Z,4.20
2019-04-26T07:43:29.324Z,3.70
2019-04-26T07:44:29.300Z,2.90
2019-04-26T07:45:29.280Z,3.30
2019-04-26T07:46:29.299Z,4.40
2019-04-26T07:47:29.261Z,2.90
2019-04-26T07:48:29.254Z,3.70
2019-04-26T07:49:29.246Z,3.90
2019-04-26T07:50:29.231Z,3.90
2019-04-26T07:51:29.221Z,3.50
2019-04-26T07:52:29.254Z,3.60
2019-04-26T07:53:29.213Z,3.60
2019-04-26T07:54:29.214Z,3.60
2019-04-26T07:55:29.197Z,3.00
2019-04-26T07:56:29.171Z,3.10
2019-04-26T07:57:29.183Z,3.00
2019-04-26T07:58:29.149Z,3.00
2019-04-26T07:59:29.138Z,3.40
2019-04-26T08:00:29.117Z,2.90
2019-04-26T08:01:29.114Z,2.60
2019-04-26T08:02:29.123Z,4.00
2019-04-26T08:03:29.093Z,3.30
2019-04-26T08:04:29.594Z,2.70
2019-04-26T08:05:29.078Z,2.80
2019-04-26T08:06:29.059Z,3.90
2019-04-26T08:07:29.062Z,3.30
2019-04-26T08:08:29.043Z,4.10
2019-04-26T08:09:29.028Z,2.70
2019-04-26T08:10:29.019Z,2.70
2019-04-26T08:11:29.006Z,3.40
2019-04-26T08:12:29.021Z,4.00
2019-04-26T08:13:28.979Z,2.70
2019-04-26T08:14:28.972Z,2.60
2019-04-26T08:15:28.992Z,3.10
2019-04-26T08:16:28.949Z,3.20
2019-04-26T08:17:28.956Z,4.00
2019-04-26T08:18:28.928Z,3.10
2019-04-26T08:19:28.912Z,3.00
2019-04-26T08:20:32.041Z,2.50
2019-04-26T08:21:31.729Z,3.60
2019-04-26T08:22:32.367Z,4.10
2019-04-26T08:23:41.106Z,4.10
2019-04-26T08:24:29.878Z,3.40
2019-04-26T08:25:28.849Z,2.80
2019-04-26T08:26:28.842Z,3.40
2019-04-26T08:27:28.849Z,3.30
2019-04-26T08:28:28.841Z,3.00
2019-04-26T08:29:29.815Z,3.80
2019-04-26T08:30:28.796Z,4.70
2019-04-26T08:31:28.780Z,3.30
2019-04-26T08:32:32.198Z,2.90
2019-04-26T08:33:28.767Z,3.20
2019-04-26T08:34:33.492Z,3.10
2019-04-26T08:35:29.749Z,5.20
2019-04-26T08:36:28.776Z,4.10
2019-04-26T08:37:32.251Z,3.90
2019-04-26T08:38:28.749Z,3.90
2019-04-26T08:39:44.286Z,3.00
2019-04-26T08:40:31.235Z,3.40
2019-04-26T08:41:28.683Z,3.20
2019-04-26T08:42:28.666Z,2.70
2019-04-26T08:43:30.795Z,3.80
2019-04-26T08:44:28.663Z,2.80
2019-04-26T08:45:28.648Z,2.60
2019-04-26T08:46:32.338Z,2.70
2019-04-26T08:47:29.626Z,3.50
2019-04-26T08:48:29.351Z,2.60
2019-04-26T08:49:28.589Z,2.50
2019-04-26T08:50:28.577Z,4.20
2019-04-26T08:51:28.601Z,2.50
2019-04-26T08:52:28.559Z,3.60
2019-04-26T08:53:28.565Z,2.50
2019-04-26T08:54:28.536Z,3.00
2019-04-26T08:55:28.533Z,2.20
2019-04-26T08:56:28.513Z,3.20
2019-04-26T08:57:28.500Z,1.90
2019-04-26T08:58:28.515Z,2.10
2019-04-26T08:59:28.476Z,2.60
2019-04-26T09:00:28.473Z,2.60
2019-04-26T09:01:28.462Z,2.50
2019-04-26T09:02:28.454Z,2.90
2019-04-26T09:03:28.463Z,3.00
2019-04-26T09:04:28.436Z,1.70
2019-04-26T09:05:28.415Z,2.00
2019-04-26T09:06:28.405Z,2.10
2019-04-26T09:07:28.399Z,2.40
2019-04-26T09:08:28.388Z,1.60
2019-04-26T09:09:28.391Z,2.40
2019-04-26T09:10:28.366Z,3.10
2019-04-26T09:11:33.313Z,2.00
2019-04-26T09:12:29.355Z,2.50
2019-04-26T09:13:28.329Z,2.80
2019-04-26T09:14:28.360Z,1.40
2019-04-26T09:15:28.311Z,1.80
2019-04-26T09:16:28.294Z,2.90
2019-04-26T09:17:32.191Z,2.10
2019-04-26T09:18:42.082Z,3.20
2019-04-26T09:19:30.531Z,3.50
2019-04-26T09:20:29.880Z,2.70
2019-04-26T09:21:29.016Z,1.90
2019-04-26T09:22:28.232Z,1.70
2019-04-26T09:23:39.587Z,2.60
2019-04-26T09:24:29.230Z,2.30
2019-04-26T09:25:30.403Z,2.20
2019-04-26T09:26:29.310Z,1.70
2019-04-26T09:27:28.214Z,1.30
2019-04-26T09:28:28.164Z,1.70
2019-04-26T09:29:30.477Z,1.60
2019-04-26T09:30:34.437Z,1.90
2019-04-26T09:31:29.134Z,1.80
2019-04-26T09:32:29.369Z,1.50
2019-04-26T09:33:31.661Z,1.70
2019-04-26T09:34:29.119Z,2.60
2019-04-26T09:35:28.088Z,3.10
2019-04-26T09:36:28.083Z,2.00
2019-04-26T09:37:28.107Z,3.10
2019-04-26T09:38:28.062Z,3.00
2019-04-26T09:39:28.094Z,2.50
2019-04-26T09:40:28.060Z,2.30
2019-04-26T09:41:30.825Z,2.60
2019-04-26T09:42:28.013Z,2.00
2019-04-26T09:43:28.008Z,1.40
2019-04-26T09:44:27.998Z,1.70
2019-04-26T09:45:28.008Z,2.20
2019-04-26T09:46:27.975Z,1.50
2019-04-26T09:47:27.971Z,2.40
2019-04-26T09:48:27.953Z,1.90
2019-04-26T09:49:27.943Z,2.70
2019-04-26T09:50:27.971Z,1.70
2019-04-26T09:51:27.924Z,2.20
2019-04-26T09:52:27.912Z,2.40
2019-04-26T09:53:27.898Z,1.90
2019-04-26T09:54:27.893Z,2.00
2019-04-26T09:55:35.081Z,1.80
2019-04-26T09:56:28.871Z,3.30
2019-04-26T09:57:27.855Z,1.60
2019-04-26T09:58:30.820Z,1.90
2019-04-26T09:59:27.835Z,1.50
2019-04-26T10:00:27.862Z,2.10
2019-04-26T10:01:27.812Z,2.20
2019-04-26T10:02:29.539Z,1.80
2019-04-26T10:03:28.782Z,1.50
2019-04-26T10:04:27.781Z,1.30
2019-04-26T10:05:27.786Z,1.70
2019-04-26T10:06:29.722Z,2.00
2019-04-26T10:07:27.740Z,1.60
2019-04-26T10:08:27.744Z,1.50
2019-04-26T10:09:27.728Z,1.60
2019-04-26T10:10:31.099Z,2.80
2019-04-26T10:11:28.706Z,1.30
2019-04-26T10:12:27.692Z,2.20
2019-04-26T10:13:27.698Z,1.30
2019-04-26T10:14:27.667Z,2.00
2019-04-26T10:15:28.208Z,2.10
2019-04-26T10:16:27.653Z,1.20
2019-04-26T10:17:27.639Z,2.30
2019-04-26T10:18:27.631Z,1.60
2019-04-26T10:19:28.085Z,2.00
2019-04-26T10:20:27.620Z,3.10
2019-04-26T10:21:27.594Z,2.70
2019-04-26T10:22:27.639Z,2.00
2019-04-26T10:23:27.599Z,2.80
2019-04-26T10:24:27.562Z,1.70
2019-04-26T10:25:27.576Z,3.00
2019-04-26T10:26:28.039Z,2.90
2019-04-26T10:27:27.527Z,4.10
2019-04-26T10:28:27.528Z,1.80
2019-04-26T10:29:27.509Z,2.00
2019-04-26T10:30:27.499Z,2.10
2019-04-26T10:31:27.514Z,2.30
2019-04-26T10:32:27.937Z,3.20
2019-04-26T10:33:27.466Z,2.50
2019-04-26T10:34:27.454Z,3.50
2019-04-26T10:35:27.441Z,3.20
2019-04-26T10:36:30.178Z,2.10
2019-04-26T10:37:38.968Z,2.40
2019-04-26T10:38:28.406Z,2.10
2019-04-26T10:39:28.495Z,2.20
2019-04-26T10:40:35.433Z,3.00
2019-04-26T10:41:28.425Z,2.20
2019-04-26T10:42:27.369Z,1.90
2019-04-26T10:43:29.394Z,1.60
2019-04-26T10:44:27.347Z,1.50
2019-04-26T10:45:27.331Z,1.80
2019-04-26T10:46:28.295Z,2.50
2019-04-26T10:47:27.314Z,1.60
2019-04-26T10:48:27.304Z,1.70
2019-04-26T10:49:27.294Z,3.00
2019-04-26T10:50:28.864Z,3.00
2019-04-26T10:51:28.290Z,1.80
2019-04-26T10:52:27.256Z,2.20
2019-04-26T10:53:30.264Z,1.90
2019-04-26T10:54:27.240Z,3.10
2019-04-26T10:55:27.226Z,2.00
2019-04-26T10:56:27.364Z,2.50
2019-04-26T10:57:27.203Z,1.60
2019-04-26T10:58:27.195Z,3.90
2019-04-26T10:59:27.191Z,1.80
2019-04-26T11:00:27.174Z,1.20
2019-04-26T11:01:27.191Z,1.80
2019-04-26T11:02:27.154Z,2.80
2019-04-26T11:03:27.145Z,2.30
2019-04-26T11:04:27.131Z,2.40
2019-04-26T11:05:27.116Z,1.80
2019-04-26T11:06:27.847Z,2.30
2019-04-26T11:07:27.098Z,1.80
2019-04-26T11:08:27.093Z,2.40
2019-04-26T11:09:27.096Z,1.80
2019-04-26T11:10:27.062Z,2.70
2019-04-26T11:11:27.085Z,2.10
2019-04-26T11:12:27.044Z,2.60
2019-04-26T11:13:27.095Z,1.40
2019-04-26T11:14:27.028Z,1.50
2019-04-26T11:15:29.139Z,2.80
2019-04-26T11:16:27.009Z,1.40
2019-04-26T11:17:27.008Z,2.00
2019-04-26T11:18:28.345Z,2.20
2019-04-26T11:19:26.968Z,2.90
2019-04-26T11:20:26.963Z,3.20
2019-04-26T11:21:26.953Z,2.50
2019-04-26T11:22:29.349Z,2.90
2019-04-26T11:23:26.926Z,2.70
2019-04-26T11:24:26.921Z,3.30
2019-04-26T11:25:28.239Z,2.70
2019-04-26T11:26:26.953Z,2.00
2019-04-26T11:27:26.904Z,1.50
2019-04-26T11:28:26.869Z,1.90
2019-04-26T11:29:28.736Z,2.70
2019-04-26T11:30:26.844Z,3.80
2019-04-26T11:31:27.709Z,2.00
2019-04-26T11:32:26.855Z,2.40
2019-04-26T11:33:26.822Z,3.20
2019-04-26T11:34:26.822Z,1.90
2019-04-26T11:35:29.237Z,2.70
2019-04-26T11:36:27.784Z,2.90
2019-04-26T11:37:26.819Z,1.20
2019-04-26T11:38:31.111Z,4.00
2019-04-26T11:39:28.207Z,3.40
2019-04-26T11:40:26.740Z,2.80
2019-04-26T11:41:26.770Z,2.30
2019-04-26T11:42:26.759Z,1.90
2019-04-26T11:43:26.782Z,2.00
2019-04-26T11:44:27.543Z,1.70
2019-04-26T11:45:26.707Z,2.20
2019-04-26T11:46:29.126Z,2.40
2019-04-26T11:47:26.700Z,2.10
2019-04-26T11:48:29.167Z,3.10
2019-04-26T11:49:26.638Z,2.40
2019-04-26T11:50:26.627Z,2.90
2019-04-26T11:51:27.597Z,1.90
2019-04-26T11:52:26.688Z,1.60
2019-04-26T11:53:26.602Z,2.00
2019-04-26T11:54:26.592Z,2.60
2019-04-26T11:55:29.967Z,1.90
2019-04-26T11:56:26.573Z,1.80
2019-04-26T11:57:26.573Z,3.00
2019-04-26T11:58:26.561Z,2.20
2019-04-26T11:59:27.070Z,1.50
2019-04-26T12:00:27.618Z,2.50
2019-04-26T12:01:26.510Z,1.30
2019-04-26T12:02:26.520Z,2.20
2019-04-26T12:03:26.490Z,2.70
2019-04-26T12:04:26.485Z,2.40
2019-04-26T12:05:26.474Z,1.50
2019-04-26T12:06:26.466Z,1.80
2019-04-26T12:07:26.477Z,1.90
2019-04-26T12:08:26.452Z,2.20
2019-04-26T12:09:26.421Z,1.80
2019-04-26T12:10:27.195Z,2.90
2019-04-26T12:11:34.123Z,1.70
2019-04-26T12:12:27.423Z,2.20
2019-04-26T12:13:26.723Z,2.10
2019-04-26T12:14:29.466Z,2.50
2019-04-26T12:15:30.430Z,2.00
2019-04-26T12:16:26.351Z,1.80
2019-04-26T12:17:27.148Z,2.90
2019-04-26T12:18:26.376Z,2.40
2019-04-26T12:19:26.327Z,1.30
2019-04-26T12:20:26.775Z,1.90
2019-04-26T12:21:26.303Z,2.30
2019-04-26T12:22:26.305Z,2.90
2019-04-26T12:23:26.294Z,3.10
2019-04-26T12:24:29.666Z,2.70
2019-04-26T12:25:27.262Z,2.40
2019-04-26T12:26:26.247Z,2.50
2019-04-26T12:27:26.694Z,2.60
2019-04-26T12:28:26.241Z,4.10
2019-04-26T12:29:26.207Z,3.10
2019-04-26T12:30:26.896Z,2.70
2019-04-26T12:31:26.211Z,1.40
2019-04-26T12:32:26.178Z,2.60
2019-04-26T12:33:26.189Z,1.60
2019-04-26T12:34:26.153Z,1.40
2019-04-26T12:35:26.145Z,2.00
2019-04-26T12:36:26.138Z,1.70
2019-04-26T12:37:26.129Z,1.70
2019-04-26T12:38:28.452Z,1.90
2019-04-26T12:39:26.106Z,3.20
2019-04-26T12:40:26.139Z,1.60
2019-04-26T12:41:39.939Z,2.00
2019-04-26T12:42:27.066Z,2.20
2019-04-26T12:43:26.243Z,2.90
2019-04-26T12:44:26.054Z,2.40
2019-04-26T12:45:26.042Z,1.50
2019-04-26T12:46:27.180Z,3.40
2019-04-26T12:47:26.017Z,2.00
2019-04-26T12:48:26.030Z,1.60
2019-04-26T12:49:26.006Z,2.00
2019-04-26T12:50:29.569Z,1.60
2019-04-26T12:51:26.980Z,2.10
2019-04-26T12:52:25.967Z,1.60
2019-04-26T12:53:26.772Z,1.90
2019-04-26T12:54:26.936Z,2.70
2019-04-26T12:55:25.929Z,1.60
2019-04-26T12:56:26.558Z,4.20
2019-04-26T12:57:25.917Z,2.40
2019-04-26T12:58:25.925Z,1.20
2019-04-26T12:59:26.491Z,1.60
2019-04-26T13:00:25.879Z,2.20
2019-04-26T13:01:25.863Z,2.00
2019-04-26T13:02:25.861Z,2.90
2019-04-26T13:03:29.217Z,2.20
2019-04-26T13:04:35.562Z,1.60
2019-04-26T13:05:26.820Z,2.70
2019-04-26T13:06:27.823Z,1.70
2019-04-26T13:07:25.802Z,2.60
2019-04-26T13:08:25.817Z,2.00
2019-04-26T13:09:26.604Z,2.50
2019-04-26T13:10:25.780Z,2.10
2019-04-26T13:11:25.761Z,1.70
2019-04-26T13:12:25.967Z,2.10
2019-04-26T13:13:25.738Z,2.10
2019-04-26T13:14:25.784Z,2.50
2019-04-26T13:15:25.721Z,1.70
2019-04-26T13:16:26.295Z,6.30
2019-04-26T13:17:25.718Z,4.60
2019-04-26T13:18:25.707Z,4.00